Time;durP1;ratioP1;P1;durP2;ratioP2;P2;SDS_P1;SDS_P2;PMS_P1;PMS_P2;Temp;Humidity;BMP_temperature;BMP_pressure;BME280_temperature;BME280_humidity;BME280_pressure;Samples;Min_cycle;Max_cycle;Signal;HPM_P1;HPM_P2
2022/02/25 00:01:03;;;;;;;3.90;2.93;;;1.90;99.90;2.40;96560.00;;;;5126835;27;20428;-83
2022/02/25 00:03:52;;;;;;;3.97;2.63;;;1.90;99.90;2.30;96572.00;;;;5146381;27;20490;-83
2022/02/25 00:06:41;;;;;;;2.20;2.03;;;1.80;99.90;1.60;96558.00;;;;5132176;27;20965;-87
2022/02/25 00:09:32;;;;;;;5.00;3.03;;;1.80;99.90;1.90;96554.00;;;;5114154;27;20950;-83
2022/02/25 00:12:21;;;;;;;4.57;2.30;;;1.70;99.90;1.90;96562.00;;;;5111304;28;20417;-86
2022/02/25 00:15:11;;;;;;;3.63;2.50;;;1.60;99.90;2.30;96564.00;;;;5124978;28;20447;-82
2022/02/25 00:17:59;;;;;;;5.30;2.40;;;1.60;99.90;2.40;96566.00;;;;5134245;27;20437;-86
2022/02/25 00:20:49;;;;;;;4.17;2.23;;;1.70;99.90;1.60;96568.00;;;;5133186;27;20805;-83
2022/02/25 00:23:38;;;;;;;2.60;2.40;;;1.60;99.90;1.30;96566.00;;;;5153514;27;20475;-87
2022/02/25 00:26:28;;;;;;;2.53;2.33;;;1.50;99.90;1.90;96568.00;;;;5154107;27;20434;-84
2022/02/25 00:29:17;;;;;;;5.40;2.40;;;1.40;99.90;2.30;96562.00;;;;5129446;27;20710;-86
2022/02/25 00:32:07;;;;;;;2.70;2.50;;;1.50;99.90;2.50;96579.00;;;;5133660;27;20423;-84
2022/02/25 00:34:56;;;;;;;12.30;2.83;;;1.60;99.90;2.00;96573.00;;;;5153842;27;20439;-87
2022/02/25 00:37:45;;;;;;;3.03;2.57;;;1.60;99.90;1.50;96574.00;;;;5153294;27;20431;-87
2022/02/25 00:40:34;;;;;;;3.93;2.63;;;1.60;99.90;1.40;96571.00;;;;5142825;27;20452;-83
2022/02/25 00:43:24;;;;;;;2.17;1.87;;;1.40;99.90;1.70;96571.00;;;;5131742;27;20494;-86
2022/02/25 00:46:13;;;;;;;2.63;2.30;;;1.30;99.90;1.60;96568.00;;;;5132173;27;20583;-87
2022/02/25 00:49:02;;;;;;;6.00;3.13;;;1.30;99.90;2.00;96571.00;;;;5133193;27;20809;-85
2022/02/25 00:51:51;;;;;;;2.40;1.90;;;1.30;99.90;1.40;96568.00;;;;5132587;27;20427;-87
2022/02/25 00:54:40;;;;;;;3.77;2.30;;;1.20;99.90;1.40;96570.00;;;;5132519;27;20462;-86
2022/02/25 00:57:29;;;;;;;5.37;2.80;;;1.20;99.90;1.70;96577.00;;;;5132083;27;21014;-84
2022/02/25 01:00:21;;;;;;;2.43;1.87;;;1.20;99.90;1.60;96570.00;;;;5125329;27;20957;-85
2022/02/25 01:03:10;;;;;;;3.07;2.30;;;1.30;99.90;1.60;96579.00;;;;5131342;28;20839;-85
2022/02/25 01:05:59;;;;;;;2.30;2.10;;;1.30;99.90;1.50;96568.00;;;;5132161;28;20626;-86
2022/02/25 01:08:48;;;;;;;2.60;2.33;;;1.20;99.90;1.10;96565.00;;;;5132664;28;20424;-86
2022/02/25 01:11:37;;;;;;;5.07;2.43;;;1.10;99.90;1.00;96569.00;;;;5131310;28;20456;-88
2022/02/25 01:14:26;;;;;;;2.63;2.43;;;1.00;99.90;1.80;96581.00;;;;5140754;27;20442;-86
2022/02/25 01:17:17;;;;;;;8.13;2.03;;;1.10;99.90;2.20;96588.00;;;;5152349;27;20423;-86
2022/02/25 01:20:09;;;;;;;2.13;1.70;;;1.30;99.90;1.50;96577.00;;;;5152048;27;20427;-86
2022/02/25 01:22:58;;;;;;;3.00;2.27;;;1.40;99.90;1.30;96582.00;;;;5133355;27;20897;-85
2022/02/25 01:25:47;;;;;;;2.00;1.80;;;1.30;99.90;1.10;96560.00;;;;5156243;27;20411;-86
2022/02/25 01:28:36;;;;;;;3.63;2.23;;;1.20;99.90;1.10;96560.00;;;;5151891;27;20813;-84
2022/02/25 01:31:25;;;;;;;2.10;1.90;;;1.10;99.90;1.70;96564.00;;;;5157101;27;20426;-85
2022/02/25 01:34:17;;;;;;;2.60;2.40;;;1.10;99.90;1.80;96574.00;;;;5155045;27;20496;-86
2022/02/25 01:37:06;;;;;;;3.50;1.53;;;1.10;99.90;1.40;96567.00;;;;5155647;27;20434;-85
2022/02/25 01:39:55;;;;;;;1.63;1.53;;;1.10;99.90;0.80;96558.00;;;;5151856;27;20426;-87
2022/02/25 01:42:47;;;;;;;1.90;1.80;;;1.10;99.90;1.70;96577.00;;;;5137998;27;20798;-85
2022/02/25 01:45:37;;;;;;;3.27;1.97;;;1.10;99.90;1.80;96565.00;;;;5154927;27;20425;-86
2022/02/25 01:48:26;;;;;;;6.67;2.33;;;1.20;99.90;1.70;96573.00;;;;5155910;27;20430;-86
2022/02/25 01:51:16;;;;;;;2.70;2.37;;;1.20;99.90;2.00;96592.00;;;;5135742;27;20430;-83
2022/02/25 01:54:07;;;;;;;2.57;1.77;;;1.30;99.90;1.70;96588.00;;;;5133148;27;20463;-85
2022/02/25 01:56:58;;;;;;;2.67;2.07;;;1.30;99.90;1.20;96566.00;;;;5139836;27;20420;-86
2022/02/25 01:59:48;;;;;;;2.03;1.60;;;1.20;99.90;1.70;96575.00;;;;5138403;27;20415;-86
2022/02/25 02:02:37;;;;;;;2.23;2.03;;;1.10;99.90;1.80;96582.00;;;;5133945;27;20427;-85
2022/02/25 02:05:26;;;;;;;1.73;1.47;;;1.10;99.90;0.80;96574.00;;;;5131171;27;20466;-84
2022/02/25 02:08:17;;;;;;;2.10;1.60;;;1.00;99.90;0.90;96571.00;;;;5126835;27;20799;-85
2022/02/25 02:11:06;;;;;;;2.97;2.07;;;0.90;99.90;1.10;96558.00;;;;5132378;27;20471;-87
2022/02/25 02:13:55;;;;;;;4.07;1.80;;;0.80;99.90;1.40;96573.00;;;;5133767;27;20864;-84
2022/02/25 02:16:44;;;;;;;2.33;1.33;;;0.80;99.90;0.90;96578.00;;;;5134171;27;20416;-85
2022/02/25 02:19:33;;;;;;;1.80;1.20;;;0.70;99.90;0.70;96571.00;;;;5145854;27;20419;-86
2022/02/25 02:22:27;;;;;;;1.93;1.47;;;0.70;99.90;0.40;96571.00;;;;5155166;27;21021;-84
2022/02/25 02:25:16;;;;;;;2.07;1.87;;;0.60;99.90;1.00;96573.00;;;;5172182;27;20458;-80
2022/02/25 02:28:20;;;;;;;2.27;1.93;;;-0.10;99.90;1.30;96572.00;;;;5174487;27;20408;-80
2022/02/25 02:31:09;;;;;;;1.63;1.53;;;0.50;99.90;1.30;96576.00;;;;5139029;27;20958;-82
2022/02/25 02:33:58;;;;;;;2.70;1.73;;;0.60;99.90;1.40;96582.00;;;;5153000;27;20443;-84
2022/02/25 02:36:48;;;;;;;7.00;2.53;;;0.70;99.90;0.90;96581.00;;;;5148924;27;20952;-83
2022/02/25 02:39:38;;;;;;;4.83;3.27;;;0.70;99.90;0.50;96575.00;;;;5149529;27;20431;-85
2022/02/25 02:42:27;;;;;;;1.63;1.27;;;0.50;99.90;0.30;96577.00;;;;5123184;27;20480;-81
2022/02/25 02:45:16;;;;;;;3.70;2.10;;;0.40;99.90;0.80;96579.00;;;;5133554;27;20456;-85
2022/02/25 02:48:06;;;;;;;4.47;2.50;;;0.30;99.90;0.60;96581.00;;;;5132182;27;20446;-83
2022/02/25 02:50:55;;;;;;;2.30;2.10;;;0.30;99.90;0.80;96585.00;;;;5132822;27;20436;-82
2022/02/25 02:53:44;;;;;;;5.00;1.63;;;0.30;99.90;1.00;96587.00;;;;5132317;27;20448;-83
2022/02/25 02:56:34;;;;;;;2.60;1.80;;;0.40;99.90;1.10;96581.00;;;;5144051;27;20422;-83
2022/02/25 02:59:23;;;;;;;2.67;2.30;;;0.40;99.90;0.60;96583.00;;;;5152793;27;20427;-83
2022/02/25 03:02:12;;;;;;;3.47;2.50;;;0.40;99.90;0.00;96580.00;;;;5130704;27;20439;-84
2022/02/25 03:05:01;;;;;;;3.17;2.73;;;0.30;99.90;0.10;96593.00;;;;5130092;27;20467;-83
2022/02/25 03:07:50;;;;;;;2.07;1.97;;;0.20;99.90;0.10;96596.00;;;;5151026;27;20471;-82
2022/02/25 03:10:42;;;;;;;2.87;2.37;;;0.10;99.90;0.50;96596.00;;;;5144017;27;20428;-82
2022/02/25 03:13:32;;;;;;;5.57;2.53;;;0.10;99.90;0.90;96601.00;;;;5130259;27;20444;-83
2022/02/25 03:16:21;;;;;;;2.07;1.97;;;0.10;99.90;0.40;96600.00;;;;5109543;28;20436;-84
2022/02/25 03:19:10;;;;;;;2.50;2.27;;;0.20;99.90;0.30;96607.00;;;;5130825;27;20423;-84
2022/02/25 03:21:59;;;;;;;2.40;2.27;;;0.10;99.90;0.70;96600.00;;;;5130590;27;20424;-85
2022/02/25 03:24:48;;;;;;;3.23;1.73;;;0.10;99.90;0.70;96603.00;;;;5129981;27;20999;-82
2022/02/25 03:27:37;;;;;;;1.53;1.43;;;0.50;99.90;0.60;96602.00;;;;5130924;27;20432;-84
2022/02/25 03:30:27;;;;;;;14.70;1.70;;;0.10;99.90;0.00;96609.00;;;;5117350;27;20431;-83
2022/02/25 03:33:16;;;;;;;1.83;1.73;;;0.10;99.90;-0.10;96600.00;;;;5129722;27;20962;-84
2022/02/25 03:36:05;;;;;;;3.37;1.20;;;-0.10;99.90;0.20;96607.00;;;;5129863;27;20863;-82
2022/02/25 03:38:55;;;;;;;3.43;1.70;;;-0.10;99.90;0.50;96612.00;;;;5128605;27;20426;-83
2022/02/25 03:41:44;;;;;;;2.87;1.90;;;-0.10;99.90;0.60;96617.00;;;;5129357;27;20937;-84
2022/02/25 03:44:33;;;;;;;1.90;1.80;;;-0.10;99.90;0.40;96609.00;;;;5130671;27;20447;-86
2022/02/25 03:47:23;;;;;;;1.83;1.57;;;-0.60;99.90;0.40;96610.00;;;;5131273;27;20461;-83
2022/02/25 03:50:13;;;;;;;1.60;1.50;;;0.00;99.90;0.30;96616.00;;;;5131531;27;20428;-84
2022/02/25 03:53:02;;;;;;;1.70;1.37;;;0.00;99.90;-0.30;96619.00;;;;5135653;27;20446;-83
2022/02/25 03:55:51;;;;;;;3.30;1.73;;;-0.10;99.90;-0.30;96608.00;;;;5135601;27;20466;-84
2022/02/25 03:58:40;;;;;;;4.50;2.67;;;-0.20;99.90;0.20;96616.00;;;;5150355;27;20437;-81
2022/02/25 04:01:29;;;;;;;2.80;1.83;;;-0.30;99.90;0.30;96628.00;;;;5150498;27;21048;-83
2022/02/25 04:04:20;;;;;;;1.80;1.60;;;-0.30;99.90;0.50;96623.00;;;;5142803;27;20455;-83
2022/02/25 04:07:09;;;;;;;1.70;1.57;;;-0.20;99.90;0.30;96630.00;;;;5150292;27;20547;-85
2022/02/25 04:09:58;;;;;;;3.17;2.07;;;-0.20;99.90;-0.60;96621.00;;;;5124360;27;20419;-84
2022/02/25 04:12:48;;;;;;;2.53;1.60;;;-0.30;99.90;-0.60;96637.00;;;;5140260;27;20510;-82
2022/02/25 04:15:39;;;;;;;6.30;1.83;;;-0.40;99.90;0.10;96636.00;;;;5149551;27;20981;-82
2022/02/25 04:18:28;;;;;;;2.50;1.47;;;-0.40;99.90;0.20;96633.00;;;;5149687;27;20435;-82
2022/02/25 04:21:18;;;;;;;2.53;1.90;;;-0.40;99.90;0.30;96643.00;;;;5151167;27;20720;-83
2022/02/25 04:24:08;;;;;;;1.80;1.50;;;-0.40;99.90;0.30;96644.00;;;;5129023;27;20448;-83
2022/02/25 04:26:56;;;;;;;3.83;2.10;;;-0.40;99.90;-0.10;96649.00;;;;5144745;27;20812;-82
2022/02/25 04:29:46;;;;;;;3.00;2.40;;;-0.40;99.90;-0.30;96641.00;;;;5119515;27;20439;-83
2022/02/25 04:32:35;;;;;;;2.43;1.80;;;-0.40;99.90;-0.60;96650.00;;;;5149721;27;20439;-82
2022/02/25 04:35:25;;;;;;;2.83;1.73;;;-0.50;99.90;-0.20;96650.00;;;;5150028;27;20462;-84
2022/02/25 04:38:16;;;;;;;1.90;1.47;;;-0.60;99.90;0.00;96655.00;;;;5149370;27;20422;-82
2022/02/25 04:41:07;;;;;;;2.23;1.70;;;-0.50;99.90;0.20;96659.00;;;;5138560;27;20420;-83
2022/02/25 04:43:56;;;;;;;2.20;2.07;;;0.00;99.90;0.00;96666.00;;;;5129123;27;20439;-84
2022/02/25 04:46:45;;;;;;;4.57;2.87;;;-0.50;99.90;-0.20;96666.00;;;;5129039;27;20917;-84
2022/02/25 04:49:34;;;;;;;0.90;0.90;;;-0.50;99.90;-0.90;96670.00;;;;5142534;27;20428;-85
2022/02/25 04:52:24;;;;;;;6.30;2.23;;;0.00;99.90;-1.10;96668.00;;;;5131936;27;20791;-84
2022/02/25 04:55:14;;;;;;;3.83;2.80;;;-0.80;99.90;-0.60;96681.00;;;;5126538;27;20459;-84
2022/02/25 04:58:03;;;;;;;2.43;2.23;;;-0.80;99.90;-0.40;96691.00;;;;5150260;27;20429;-83
2022/02/25 05:00:52;;;;;;;1.70;1.60;;;-0.80;99.90;-0.30;96701.00;;;;5143189;27;20428;-84
2022/02/25 05:03:41;;;;;;;7.93;2.27;;;-0.20;99.90;-0.50;96701.00;;;;5131528;27;20454;-84
2022/02/25 05:06:30;;;;;;;4.20;2.50;;;-0.80;99.90;-0.30;96699.00;;;;5128976;28;20468;-85
2022/02/25 05:09:19;;;;;;;1.60;1.50;;;-0.80;99.90;-0.10;96709.00;;;;5133107;27;20420;-85
2022/02/25 05:12:10;;;;;;;3.37;1.87;;;-0.10;99.90;0.00;96724.00;;;;5129036;28;20937;-83
2022/02/25 05:21:12;;;;;;;5.60;2.13;;;-0.60;99.90;0.00;96723.00;;;;5122674;28;20423;-84
2022/02/25 05:24:01;;;;;;;2.47;1.60;;;-0.50;99.90;0.00;96733.00;;;;5128111;28;20448;-84
2022/02/25 05:26:50;;;;;;;1.10;1.10;;;-0.50;99.90;-0.80;96718.00;;;;5130760;28;20420;-85
2022/02/25 05:29:41;;;;;;;4.47;1.13;;;-0.50;99.90;-0.80;96725.00;;;;5125929;28;21001;-87
2022/02/25 05:32:30;;;;;;;7.07;1.90;;;-0.70;99.90;-0.30;96731.00;;;;5123928;27;20432;-85
2022/02/25 05:35:21;;;;;;;1.93;1.23;;;-0.60;99.90;-1.20;96743.00;;;;5157376;27;20521;-89
2022/02/25 05:38:10;;;;;;;1.67;1.57;;;-0.70;99.90;-0.80;96752.00;;;;5140769;27;20438;-85
2022/02/25 05:40:59;;;;;;;3.80;2.00;;;-0.80;99.90;-1.30;96748.00;;;;5122125;28;20427;-84
2022/02/25 05:43:48;;;;;;;3.90;2.17;;;-0.80;99.90;-0.60;96769.00;;;;5117848;28;20446;-84
2022/02/25 05:46:39;;;;;;;3.63;2.63;;;-0.80;99.90;-0.30;96774.00;;;;5131363;28;20439;-85
2022/02/25 05:49:29;;;;;;;4.03;2.47;;;-0.80;99.90;-0.10;96784.00;;;;5128139;27;20443;-85
2022/02/25 05:52:18;;;;;;;4.23;2.03;;;-0.30;99.90;0.10;96773.00;;;;5122943;27;20454;-84
2022/02/25 05:55:09;;;;;;;2.50;2.30;;;-0.60;99.90;0.30;96785.00;;;;5121615;27;20476;-85
2022/02/25 05:57:58;;;;;;;4.00;2.43;;;-0.50;99.90;0.30;96788.00;;;;5122973;27;20416;-84
2022/02/25 06:00:47;;;;;;;3.40;2.00;;;-0.30;99.90;0.50;96789.00;;;;5130856;27;20423;-84
2022/02/25 06:03:37;;;;;;;5.20;2.83;;;-0.30;99.90;0.10;96789.00;;;;5124247;28;20974;-85
2022/02/25 06:06:26;;;;;;;5.13;3.30;;;-0.30;99.90;0.30;96797.00;;;;5116221;27;20431;-85
2022/02/25 06:09:15;;;;;;;5.00;3.63;;;-0.20;99.90;0.60;96794.00;;;;5128905;27;20829;-85
2022/02/25 06:12:05;;;;;;;4.93;3.67;;;-0.20;99.90;0.30;96808.00;;;;5135774;27;20789;-85
2022/02/25 06:14:54;;;;;;;8.63;4.50;;;-0.10;99.90;0.40;96804.00;;;;5135273;27;20439;-85
2022/02/25 06:17:48;;;;;;;7.47;3.63;;;-0.10;99.90;0.50;96807.00;;;;5136025;27;20431;-85
2022/02/25 06:20:39;;;;;;;7.37;3.17;;;-0.10;99.90;0.70;96811.00;;;;5137076;27;20427;-85
2022/02/25 06:23:28;;;;;;;3.30;2.60;;;0.00;99.90;0.70;96812.00;;;;5135497;27;20488;-85
2022/02/25 06:26:17;;;;;;;2.53;2.33;;;0.00;99.90;1.00;96815.00;;;;5151827;27;20425;-85
2022/02/25 06:29:07;;;;;;;3.70;2.73;;;0.10;99.90;1.10;96818.00;;;;5152130;27;20423;-85
2022/02/25 06:31:57;;;;;;;3.50;2.10;;;0.20;99.90;1.30;96824.00;;;;5149321;27;20460;-85
2022/02/25 06:34:46;;;;;;;3.87;2.87;;;0.30;99.90;1.60;96829.00;;;;5137649;27;20463;-85
2022/02/25 06:37:40;;;;;;;4.83;2.57;;;0.60;99.90;2.00;96834.00;;;;5110009;28;20799;-84
2022/02/25 06:40:29;;;;;;;4.57;3.37;;;0.70;99.90;2.20;96834.00;;;;5109259;28;20424;-85
2022/02/25 06:43:18;;;;;;;4.00;2.27;;;0.90;99.90;2.50;96844.00;;;;5116575;27;20433;-86
2022/02/25 06:46:08;;;;;;;3.33;1.73;;;1.20;99.90;3.10;96852.00;;;;5107054;28;21174;-84
2022/02/25 06:48:57;;;;;;;4.70;2.20;;;1.50;99.90;3.30;96850.00;;;;5117226;27;20480;-84
2022/02/25 06:51:46;;;;;;;1.73;1.63;;;1.80;99.90;3.70;96862.00;;;;5129995;27;20436;-86
2022/02/25 06:54:37;;;;;;;4.90;2.10;;;2.10;99.90;3.90;96876.00;;;;5121666;27;20504;-85
2022/02/25 06:57:26;;;;;;;2.73;1.70;;;2.40;99.90;4.40;96878.00;;;;5131380;27;20487;-87
2022/02/25 07:00:21;;;;;;;4.43;1.67;;;2.70;99.90;4.70;96878.00;;;;5155573;27;20462;-85
2022/02/25 07:03:10;;;;;;;3.07;1.70;;;3.00;99.90;4.80;96884.00;;;;5122526;27;20454;-86
2022/02/25 07:06:00;;;;;;;1.93;1.23;;;3.30;99.90;4.90;96871.00;;;;5133419;27;20432;-85
2022/02/25 07:08:48;;;;;;;2.43;0.93;;;3.60;99.90;5.60;96885.00;;;;5136504;27;20411;-85
2022/02/25 07:11:39;;;;;;;1.33;1.07;;;3.90;99.90;5.70;96889.00;;;;5130088;27;20447;-85
2022/02/25 07:14:28;;;;;;;1.03;0.93;;;4.10;99.90;5.80;96902.00;;;;5131400;27;20519;-84
2022/02/25 07:17:17;;;;;;;1.53;0.80;;;4.40;99.90;5.90;96908.00;;;;5153083;27;20458;-86
2022/02/25 07:20:08;;;;;;;2.40;0.93;;;4.60;99.90;5.90;96902.00;;;;5153751;27;20442;-85
2022/02/25 07:23:05;;;;;;;1.93;0.77;;;4.70;99.90;6.00;96906.00;;;;5155321;27;20443;-85
2022/02/25 07:25:53;;;;;;;0.70;0.50;;;4.80;99.90;6.10;96912.00;;;;5155417;27;20423;-85
2022/02/25 07:28:44;;;;;;;0.50;0.50;;;4.90;99.90;6.30;96914.00;;;;5133667;27;20558;-84
2022/02/25 07:31:33;;;;;;;9.63;1.40;;;5.10;99.90;6.30;96908.00;;;;5129282;27;20199;-86
2022/02/25 07:34:23;;;;;;;1.07;0.50;;;5.10;99.90;6.40;96911.00;;;;5147863;27;20276;-85
2022/02/25 07:37:12;;;;;;;1.07;0.97;;;5.20;99.90;6.50;96910.00;;;;5155185;27;20445;-85
2022/02/25 07:40:02;;;;;;;1.70;0.80;;;5.40;99.90;6.60;96924.00;;;;5156687;27;20254;-84
2022/02/25 07:42:51;;;;;;;0.43;0.40;;;5.40;99.90;6.60;96928.00;;;;5155395;27;20197;-85
2022/02/25 07:45:42;;;;;;;0.67;0.67;;;5.50;99.90;6.60;96934.00;;;;5155952;27;20201;-86
2022/02/25 07:48:31;;;;;;;0.60;0.60;;;5.50;99.90;6.70;96935.00;;;;5154737;27;20550;-85
2022/02/25 07:51:19;;;;;;;0.60;0.60;;;5.60;99.90;6.80;96948.00;;;;5135254;27;20728;-85
2022/02/25 07:54:08;;;;;;;0.60;0.60;;;5.60;99.90;6.90;96939.00;;;;5125051;27;20590;-85
2022/02/25 07:56:58;;;;;;;0.50;0.50;;;7.20;99.90;6.90;96947.00;;;;5144030;27;20225;-85
2022/02/25 07:59:47;;;;;;;0.50;0.50;;;5.70;99.90;6.90;96944.00;;;;5154458;27;20592;-84
2022/02/25 08:02:38;;;;;;;0.57;0.57;;;5.80;99.50;7.00;96947.00;;;;5133448;27;20220;-85
2022/02/25 08:05:27;;;;;;;0.67;0.60;;;5.80;98.20;7.10;96948.00;;;;5133897;27;20202;-85
2022/02/25 08:08:16;;;;;;;0.33;0.23;;;5.90;98.00;6.40;96944.00;;;;5127306;27;20202;-85
2022/02/25 08:11:05;;;;;;;0.70;0.70;;;6.00;94.10;7.00;96955.00;;;;5148213;27;20205;-86
2022/02/25 08:13:54;;;;;;;0.40;0.40;;;6.00;94.00;7.10;96951.00;;;;5134884;27;20228;-86
2022/02/25 08:16:43;;;;;;;0.40;0.40;;;6.00;93.10;7.10;96961.00;;;;5132733;27;20218;-85
2022/02/25 08:19:35;;;;;;;1.50;0.57;;;6.00;93.10;7.00;96953.00;;;;5132857;27;20736;-86
2022/02/25 08:22:24;;;;;;;1.67;0.73;;;6.00;92.80;6.90;96956.00;;;;5153024;27;20223;-87
2022/02/25 08:25:13;;;;;;;0.50;0.50;;;6.00;92.30;6.90;96962.00;;;;5136839;27;20201;-86
2022/02/25 08:28:02;;;;;;;0.63;0.40;;;6.00;90.60;6.60;96968.00;;;;5128351;27;20199;-86
2022/02/25 08:30:51;;;;;;;0.70;0.70;;;6.10;89.30;7.00;96972.00;;;;5123777;27;20306;-86
2022/02/25 08:33:40;;;;;;;1.03;0.60;;;6.10;88.70;7.10;96969.00;;;;5133853;27;20218;-86
2022/02/25 08:36:30;;;;;;;0.50;0.50;;;6.10;89.60;7.10;96966.00;;;;5010872;28;20237;-85
2022/02/25 08:39:19;;;;;;;0.50;0.50;;;6.10;89.80;6.90;96967.00;;;;5013557;28;20668;-86
2022/02/25 08:42:08;;;;;;;0.67;0.37;;;6.10;87.80;7.10;96962.00;;;;5000223;28;20687;-85
2022/02/25 08:44:58;;;;;;;0.80;0.50;;;6.10;87.40;7.10;96971.00;;;;5012354;28;20208;-86
2022/02/25 08:47:49;;;;;;;0.40;0.40;;;6.10;88.20;7.10;96981.00;;;;5013886;28;20680;-86
2022/02/25 08:50:38;;;;;;;0.50;0.50;;;6.10;87.80;7.00;96980.00;;;;5034498;28;20269;-85
2022/02/25 08:53:28;;;;;;;0.80;0.80;;;6.10;87.60;6.80;96984.00;;;;5115834;27;20214;-85
2022/02/25 08:56:17;;;;;;;0.63;0.40;;;6.00;85.70;6.90;96993.00;;;;5089579;28;20202;-84
2022/02/25 08:59:06;;;;;;;0.97;0.57;;;6.00;85.10;7.20;97003.00;;;;5077261;28;20623;-86
2022/02/25 09:01:55;;;;;;;0.50;0.40;;;6.10;86.10;7.30;97008.00;;;;5109183;28;20700;-86
2022/02/25 09:04:44;;;;;;;0.40;0.40;;;6.10;85.60;7.00;97005.00;;;;5111891;28;20604;-86
2022/02/25 09:07:33;;;;;;;0.33;0.33;;;6.10;85.20;7.10;97009.00;;;;5136223;28;20693;-86
2022/02/25 09:10:25;;;;;;;0.50;0.50;;;6.20;84.30;7.30;97011.00;;;;5031350;28;20217;-86
2022/02/25 09:13:15;;;;;;;1.93;0.50;;;6.20;84.40;7.30;97024.00;;;;5025893;28;20221;-86
2022/02/25 09:16:06;;;;;;;0.40;0.40;;;6.20;84.20;7.10;97020.00;;;;5131573;28;20201;-85
2022/02/25 09:18:55;;;;;;;0.53;0.53;;;6.20;83.30;7.30;97030.00;;;;5135824;28;20201;-87
2022/02/25 09:21:44;;;;;;;2.10;0.47;;;6.20;84.00;7.20;97021.00;;;;5098897;28;20202;-87
2022/02/25 09:24:33;;;;;;;1.20;0.60;;;6.30;84.20;7.50;97045.00;;;;5105885;28;20214;-86
2022/02/25 09:27:25;;;;;;;0.40;0.40;;;7.10;84.90;7.60;97037.00;;;;5101867;28;20206;-86
2022/02/25 09:30:16;;;;;;;0.67;0.67;;;6.40;84.60;7.80;97034.00;;;;5134653;28;20212;-86
2022/02/25 09:33:05;;;;;;;0.87;0.40;;;6.40;85.10;7.80;97044.00;;;;5127394;28;20229;-86
2022/02/25 09:35:54;;;;;;;0.77;0.70;;;6.50;84.60;7.70;97040.00;;;;5100463;27;20273;-86
2022/02/25 09:38:43;;;;;;;0.60;0.60;;;6.60;84.00;7.70;97035.00;;;;5109238;27;20218;-86
2022/02/25 09:41:33;;;;;;;4.93;0.63;;;6.60;83.00;7.70;97032.00;;;;5126895;27;20665;-86
2022/02/25 09:44:23;;;;;;;0.40;0.40;;;6.60;83.70;7.70;97042.00;;;;5131691;27;20218;-87
2022/02/25 09:47:15;;;;;;;1.53;0.30;;;6.60;83.40;7.50;97041.00;;;;5102928;27;20549;-85
2022/02/25 09:50:06;;;;;;;1.90;0.60;;;6.60;83.00;7.50;97038.00;;;;5138040;27;20197;-86
2022/02/25 09:52:56;;;;;;;0.40;0.40;;;6.60;82.90;7.60;97046.00;;;;5115796;27;20222;-86
2022/02/25 09:55:45;;;;;;;0.50;0.40;;;6.60;83.30;7.60;97048.00;;;;5138542;27;20228;-86
2022/02/25 09:58:34;;;;;;;0.70;0.43;;;6.60;83.20;7.40;97048.00;;;;5137878;27;20219;-86
2022/02/25 10:01:31;;;;;;;0.40;0.40;;;6.60;82.30;7.90;97053.00;;;;5145491;27;20212;-86
2022/02/25 10:04:22;;;;;;;0.30;0.30;;;6.60;82.90;8.00;97048.00;;;;5144319;27;20221;-85
2022/02/25 10:07:33;;;;;;;2.07;0.70;;;6.70;82.50;8.00;97050.00;;;;5135162;27;20222;-87
2022/02/25 10:10:29;;;;;;;2.00;0.90;;;6.80;82.30;8.20;97051.00;;;;5155061;27;20198;-86
2022/02/25 10:13:20;;;;;;;1.30;1.00;;;6.80;81.90;8.40;97043.00;;;;5132119;27;20283;-85
2022/02/25 10:16:11;;;;;;;0.50;0.50;;;6.90;81.30;8.40;97042.00;;;;5158048;27;20230;-85
2022/02/25 10:19:02;;;;;;;0.50;0.40;;;7.00;81.30;8.60;97042.00;;;;5146842;27;20664;-86
2022/02/25 10:21:51;;;;;;;1.77;0.50;;;7.10;81.00;8.60;97055.00;;;;5163497;27;20216;-86
2022/02/25 10:24:46;;;;;;;0.40;0.40;;;7.20;79.40;8.50;97038.00;;;;5138915;27;20226;-85
2022/02/25 10:27:37;;;;;;;0.60;0.57;;;7.30;78.80;8.60;97045.00;;;;5041140;28;20201;-84
2022/02/25 10:30:27;;;;;;;0.20;0.20;;;7.30;77.70;8.30;97042.00;;;;5127293;27;20231;-85
2022/02/25 10:33:18;;;;;;;1.17;1.07;;;7.40;76.30;8.60;97048.00;;;;5080628;27;20222;-85
2022/02/25 10:36:09;;;;;;;0.93;0.63;;;7.40;75.30;8.80;97046.00;;;;5137095;27;20286;-84
2022/02/25 10:39:01;;;;;;;2.53;2.33;;;7.50;75.10;8.60;97047.00;;;;5119047;27;20229;-85
2022/02/25 10:42:11;;;;;;;1.23;1.10;;;7.50;74.20;8.60;97047.00;;;;5136951;27;20269;-84
2022/02/25 10:45:02;;;;;;;0.50;0.50;;;7.50;73.20;8.50;97041.00;;;;5131551;27;20237;-85
2022/02/25 10:47:51;;;;;;;1.17;1.13;;;7.50;71.60;8.10;97032.00;;;;5144669;27;20694;-86
2022/02/25 10:50:48;;;;;;;0.40;0.40;;;7.50;70.90;7.80;97039.00;;;;5135508;27;20260;-84
2022/02/25 10:53:49;;;;;;;0.57;0.57;;;7.40;69.80;8.10;97042.00;;;;5086680;27;20213;-84
2022/02/25 10:56:47;;;;;;;0.47;0.47;;;7.30;70.50;8.60;97046.00;;;;5135235;27;20201;-85
2022/02/25 10:59:43;;;;;;;0.40;0.40;;;7.40;71.60;8.70;97050.00;;;;5139499;27;20262;-86
2022/02/25 11:02:36;;;;;;;0.30;0.30;;;7.40;71.70;8.30;97047.00;;;;5142609;27;20226;-86
2022/02/25 11:05:27;;;;;;;0.30;0.30;;;7.40;70.10;8.40;97046.00;;;;5126854;27;20206;-85
2022/02/25 11:08:17;;;;;;;1.47;0.40;;;7.40;70.10;8.40;97049.00;;;;5125767;27;20208;-85
2022/02/25 11:11:08;;;;;;;1.20;0.50;;;7.40;70.30;8.10;97043.00;;;;5128832;27;20193;-85
2022/02/25 11:13:59;;;;;;;0.53;0.30;;;7.40;69.00;8.10;97047.00;;;;5102175;27;20703;-85
2022/02/25 11:16:48;;;;;;;0.30;0.30;;;7.30;69.60;8.00;97029.00;;;;5131672;27;20206;-85
2022/02/25 11:19:43;;;;;;;0.50;0.33;;;7.30;69.30;8.10;97030.00;;;;5087438;27;20259;-86
2022/02/25 11:22:35;;;;;;;0.60;0.53;;;7.30;69.70;8.30;97044.00;;;;5130629;27;20198;-86
2022/02/25 11:25:24;;;;;;;0.30;0.30;;;7.20;69.70;8.40;97050.00;;;;5072649;27;20219;-84
2022/02/25 11:28:16;;;;;;;1.03;0.40;;;7.30;69.20;8.30;97051.00;;;;5030159;28;20194;-86
2022/02/25 11:31:13;;;;;;;0.60;0.40;;;7.30;69.40;8.30;97056.00;;;;5031781;28;20597;-84
2022/02/25 11:34:05;;;;;;;0.30;0.30;;;7.30;70.20;8.30;97044.00;;;;5130364;27;20229;-85
2022/02/25 11:36:54;;;;;;;1.60;0.40;;;7.30;69.20;8.60;97050.00;;;;5128462;27;20205;-86
2022/02/25 11:39:46;;;;;;;0.37;0.37;;;7.40;70.10;8.20;97043.00;;;;5149206;27;20232;-85
2022/02/25 11:42:35;;;;;;;0.40;0.40;;;7.50;69.40;8.10;97053.00;;;;5127692;27;20195;-84
2022/02/25 11:45:26;;;;;;;0.33;0.33;;;7.50;68.80;8.30;97063.00;;;;5105476;27;20843;-86
2022/02/25 11:48:20;;;;;;;0.50;0.50;;;7.40;69.10;8.00;97057.00;;;;5105038;27;20231;-84
2022/02/25 11:51:40;;;;;;;1.07;0.40;;;7.30;69.90;8.20;97072.00;;;;5065347;27;20226;-86
2022/02/25 11:54:46;;;;;;;0.40;0.40;;;7.30;70.00;7.30;97076.00;;;;5119985;27;20228;-84
2022/02/25 11:57:36;;;;;;;1.00;0.90;;;7.20;69.50;7.50;97075.00;;;;5120876;27;20197;-85
2022/02/25 12:00:26;;;;;;;0.70;0.30;;;7.00;70.30;7.30;97073.00;;;;5093756;27;20207;-84
2022/02/25 12:03:15;;;;;;;0.30;0.30;;;6.90;71.20;7.20;97078.00;;;;5102776;27;20837;-82
2022/02/25 12:06:04;;;;;;;0.40;0.40;;;6.80;72.20;7.20;97082.00;;;;5098302;27;20678;-85
2022/02/25 12:08:58;;;;;;;2.73;1.70;;;6.70;72.70;6.80;97098.00;;;;5114630;27;20221;-87
2022/02/25 12:11:47;;;;;;;0.40;0.40;;;6.50;73.10;6.80;97089.00;;;;5151251;27;20192;-83
2022/02/25 12:14:59;;;;;;;2.40;1.57;;;6.30;73.50;6.90;97097.00;;;;5150128;27;20198;-83
2022/02/25 12:17:52;;;;;;;3.97;2.70;;;6.20;73.90;6.90;97090.00;;;;5128593;27;20237;-84
2022/02/25 12:20:45;;;;;;;0.27;0.23;;;6.20;74.80;6.20;97100.00;;;;5133389;27;20209;-85
2022/02/25 12:23:49;;;;;;;3.67;2.63;;;6.00;74.50;6.70;97092.00;;;;5113425;27;20222;-85
2022/02/25 12:26:41;;;;;;;2.00;1.63;;;6.00;75.40;6.80;97102.00;;;;5128640;27;20201;-84
2022/02/25 12:29:36;;;;;;;2.27;1.67;;;5.90;75.50;7.00;97097.00;;;;5122253;27;20221;-83
2022/02/25 12:32:46;;;;;;;1.20;1.10;;;5.90;76.00;7.10;97110.00;;;;5133326;27;20261;-85
2022/02/25 12:35:49;;;;;;;1.07;0.60;;;6.00;76.10;6.80;97098.00;;;;5135596;27;20202;-86
2022/02/25 12:38:43;;;;;;;0.30;0.30;;;6.00;75.30;6.90;97098.00;;;;5141346;27;20217;-86
2022/02/25 12:41:37;;;;;;;0.40;0.40;;;5.90;74.90;7.00;97099.00;;;;5137958;27;20192;-86
2022/02/25 12:44:28;;;;;;;0.30;0.30;;;5.90;75.30;7.00;97096.00;;;;5109688;27;20221;-85
2022/02/25 12:47:17;;;;;;;0.30;0.30;;;5.90;75.30;7.00;97085.00;;;;5127397;27;20228;-84
2022/02/25 12:50:08;;;;;;;0.30;0.30;;;5.90;75.50;6.90;97094.00;;;;5163584;22;20229;-59
2022/02/25 12:53:05;;;;;;;4.00;1.57;;;5.90;75.50;7.00;97091.00;;;;5090757;28;20609;-62
2022/02/25 12:55:55;;;;;;;0.70;0.70;;;5.90;75.40;7.20;97095.00;;;;5088692;28;20226;-59
2022/02/25 12:58:44;;;;;;;4.13;1.20;;;5.90;75.50;7.10;97090.00;;;;5092963;28;20705;-61